ヘネラル・イグナシオ・ペスケイラ・ガルシア国際空港の過去48時間の天気

ヘネラル・イグナシオ・ペスケイラ・ガルシア国際空港 (Hermosillo, Son.)

現在時刻: 1/22 17:52 MST (1/23 00:52 UTC) 以下の時間は現地時間です。

過去48時間のMETAR気象情報
時間 風向 風速(m/s) 視程 気温(℃) 湿度(%) 気圧(hPa) 天気現象
22 16:44 南西 3 10km以上 23 44 1015
22 15:43 西南西 4 10km以上 23 44 1015
22 14:56 静穏 0 10km以上 23 41 1016
22 13:44 静穏 0 10km以上 23 41 1016
22 12:52 静穏 0 10km以上 23 38 1017
22 11:41 静穏 0 10km以上 21 49 1018
22 10:50 静穏 0 10km以上 20 56 1018.8
22 09:49 静穏 0 10km以上 17 72 1019
22 08:42 静穏 0 10km以上 14 88 1019
22 07:44 静穏 0 10km以上 10 100 1018.8
22 06:42 静穏 0 10km以上 12 94 1018
22 06:15 静穏 0 10km以上 12 94 1018
21 22:40 静穏 0 10km以上 13 94 1019.1
21 21:40 静穏 0 10km以上 14 88 1018
21 20:40 静穏 0 10km以上 15 77 1018
21 19:40 西北西 2 10km以上 17 68 1017.8
21 18:40 西 3 10km以上 18 68 1017
21 17:40 西 2 10km以上 20 56 1016
21 16:40 西南西 2 10km以上 22 57 1016
21 15:40 南西 4 10km以上 22 50 1016
21 14:40 西 6 10km以上 21 56 1016
21 13:42 南西 8 10km以上 22 60 1016
21 12:41 南西 7 10km以上 22 69 1017
21 11:41 南西 5 10km以上 20 83 1017
21 11:26 南南西 5 10km以上 20 88 1018
21 10:40 3 4850m 19 100 1018.3 煙霧
21 09:40 南南西 3 3200m 18 100 1018 煙霧
21 08:40 南西 4 8050m 18 100 1017 弱い霧雨
21 07:40 南南東 2 8050m 18 100 1016.9
21 07:12 静穏 0 8050m 18 100 1017
21 06:40 南東 2 3200m 18 100 1017 煙霧
21 06:05 静穏 0 8050m 18 100 1017 弱い霧雨
20 22:40 西北西 2 3200m 18 100 1018 強い霧雨
20 21:40 北東 2 4850m 18 100 1018 霧雨
20 20:45 北北東 2 8050m 18 100 1018 弱い霧雨
20 19:40 2 3200m 18 100 1018 霧雨
20 18:40 2 3200m 18 100 1018 霧雨
MMHO 222344Z 23005KT 10SM SKC 23/10 A2998 RMK SLP/// 57007 953 ISOL CU HZY
MMHO 222243Z 24008KT 10SM FEW030 23/10 A2998 RMK 8/100 HZY
MMHO 222156Z 00000KT 10SM FEW030 23/09 A2999 RMK 8/100 HZY
MMHO 222044Z 00000KT 10SM FEW030 23/09 A3000 RMK SLP/// 57024 902 8/100 HZY
MMHO 221952Z 00000KT 10SM SKC 23/08 A3002 RMK ISOL CU HZY
MMHO 221841Z 00000KT 10SM SKC 21/10 A3006 RMK HZY
MMHO 221750Z 00000KT 10SM SKC 20/11 A3008 RMK SLP188 52003 904 HZY
MMHO 221649Z 00000KT 10SM SKC 17/12 A3008 RMK HZY
MMHO 221542Z 00000KT 10SM SKC 14/12 A3008 RMK HZY
MMHO 221444Z 00000KT 10SM SKC 10/10 A3007 RMK SLP188 5//// 915 HZY
MMHO 221342Z 00000KT 10SM SKC 12/11 A3006 RMK HZY
MMHO 221315Z RTD 00000KT 10SM SKC 12/11 A3006 RMK HZY RTS
MMHO 220540Z 00000KT 10SM SKC 13/12 A3008 RMK SLP191 52010 907 ISOL SC
MMHO 220440Z 00000KT 10SM SKC 14/12 A3007 RMK ISOL SC
MMHO 220340Z 00000KT 10SM FEW030 15/11 A3007 RMK 8/500 ISOL CU
MMHO 220240Z 30003KT 10SM FEW030 17/11 A3005 RMK SLP178 52019 952 8/500 ISOL CU
MMHO 220140Z 28005KT 10SM FEW035 18/12 A3003 RMK 8/500
MMHO 220040Z 26003KT 10SM FEW035 20/11 A3001 RMK 8/500
MMHO 212340Z 24004KT 10SM FEW035 22/13 A2999 RMK SLP/// 57003 962 8/500
MMHO 212240Z 22008KT 10SM SCT035 22/11 A3000 RMK 8/500 VRB COND
MMHO 212140Z 28012KT 10SM BKN035 21/12 A3000 RMK 8/500 VRB COND
MMHO 212042Z 22015KT 10SM BKN025 22/14 A3000 RMK SLP/// 57022 959 8/700 VRB COND
MMHO 211941Z 23013KT 10SM BKN015 22/16 A3002 RMK 8/700 VRB COND
MMHO 211841Z 22010KT 7SM OVC015 20/17 A3004 RMK 8/7// BINOVC VRB COND
MMHO 211826Z 21010KT 7SM OVC015 20/18 A3005 RMK 8/7// BINOVC VRB COND
MMHO 211740Z 19006KT 3SM HZ OVC010 19/19 A3007 RMK SLP183 52004 964 8/6// VRB COND
MMHO 211640Z 20005KT 2SM HZ OVC006 18/18 A3005 RMK 60015 8/6// VRB COND
MMHO 211540Z 22007KT 5SM -DZ OVC008 18/18 A3004 RMK 60015 8/6// LWR VSBY 1ST AND 2ND QUAD
MMHO 211440Z 16004KT 5SM OVC008 18/18 A3002 RMK SLP169 5//// 964 60005 8/6// VSBY TWR
MMHO 211412Z 00000KT 5SM OVC008 18/18 A3002 RMK 8/6// VSBY TWR
MMHO 211340Z 13004KT 2SM HZ OVC015 18/18 A3002 RMK 60005 8/6// VSBY TWR
MMHO 211305Z RTD 00000KT 5SM -DZ OVC012 18/18 A3002 RMK 60378 8/6// RTS
MMHO 210540Z 30004KT 2SM +DZ OVC004 18/18 A3006 RMK SLP180 52001 920 60305 8/6// VSBY TWR
MMHO 210440Z 04004KT 3SM DZ OVC010 18/18 A3005 RMK 60255 8/6//
MMHO 210345Z 03004KT 5SM -DZ OVC010 18/18 A3006 RMK 60245 8/6//
MMHO 210240Z 08004KT 2SM DZ OVC010 18/18 A3006 RMK SLP180 52009 934 60236 8/6// VSBY TWR
MMHO 210140Z 09004KT 2SM DZ OVC010 18/18 A3005 RMK 60185 8/6// VSBY TWR